sensor_id;sensor_type;location;lat;lon;timestamp;P1;durP1;ratioP1;P2;durP2;ratioP2
76852;SDS011;65825;52.232;10.566;2022-12-18T00:00:53;22.30;;;10.67;;
76852;SDS011;65825;52.232;10.566;2022-12-18T00:03:19;24.07;;;11.53;;
76852;SDS011;65825;52.232;10.566;2022-12-18T00:05:50;26.23;;;12.27;;
76852;SDS011;65825;52.232;10.566;2022-12-18T00:08:16;27.20;;;13.25;;
76852;SDS011;65825;52.232;10.566;2022-12-18T00:10:42;31.60;;;12.65;;
76852;SDS011;65825;52.232;10.566;2022-12-18T00:13:08;28.25;;;13.10;;
76852;SDS011;65825;52.232;10.566;2022-12-18T00:15:34;26.48;;;11.98;;
76852;SDS011;65825;52.232;10.566;2022-12-18T00:18:00;25.98;;;11.98;;
76852;SDS011;65825;52.232;10.566;2022-12-18T00:20:25;28.98;;;11.48;;
76852;SDS011;65825;52.232;10.566;2022-12-18T00:22:53;32.90;;;12.48;;
76852;SDS011;65825;52.232;10.566;2022-12-18T00:25:19;28.35;;;11.20;;
76852;SDS011;65825;52.232;10.566;2022-12-18T00:27:45;23.92;;;11.88;;
76852;SDS011;65825;52.232;10.566;2022-12-18T00:30:10;26.77;;;11.52;;
76852;SDS011;65825;52.232;10.566;2022-12-18T00:32:36;27.67;;;13.02;;
76852;SDS011;65825;52.232;10.566;2022-12-18T00:35:02;25.50;;;11.80;;
76852;SDS011;65825;52.232;10.566;2022-12-18T00:37:27;25.52;;;11.27;;
76852;SDS011;65825;52.232;10.566;2022-12-18T00:39:52;26.30;;;11.55;;
76852;SDS011;65825;52.232;10.566;2022-12-18T00:42:18;30.10;;;12.87;;
76852;SDS011;65825;52.232;10.566;2022-12-18T00:45:02;26.13;;;11.05;;
76852;SDS011;65825;52.232;10.566;2022-12-18T00:47:27;30.92;;;12.85;;
76852;SDS011;65825;52.232;10.566;2022-12-18T00:49:53;26.17;;;11.87;;
76852;SDS011;65825;52.232;10.566;2022-12-18T00:52:18;22.33;;;11.57;;
76852;SDS011;65825;52.232;10.566;2022-12-18T00:54:43;26.73;;;11.40;;
76852;SDS011;65825;52.232;10.566;2022-12-18T00:57:08;29.43;;;12.93;;
76852;SDS011;65825;52.232;10.566;2022-12-18T00:59:34;27.20;;;12.80;;
76852;SDS011;65825;52.232;10.566;2022-12-18T01:01:59;27.97;;;12.57;;
76852;SDS011;65825;52.232;10.566;2022-12-18T01:04:24;26.03;;;13.23;;
76852;SDS011;65825;52.232;10.566;2022-12-18T01:06:49;27.77;;;12.37;;
76852;SDS011;65825;52.232;10.566;2022-12-18T01:09:15;28.83;;;12.93;;
76852;SDS011;65825;52.232;10.566;2022-12-18T01:11:40;25.00;;;11.77;;
76852;SDS011;65825;52.232;10.566;2022-12-18T01:14:05;33.65;;;12.40;;
76852;SDS011;65825;52.232;10.566;2022-12-18T01:16:31;27.20;;;11.25;;
76852;SDS011;65825;52.232;10.566;2022-12-18T01:18:56;33.42;;;13.82;;
76852;SDS011;65825;52.232;10.566;2022-12-18T01:21:22;31.13;;;13.63;;
76852;SDS011;65825;52.232;10.566;2022-12-18T01:23:55;27.10;;;13.05;;
76852;SDS011;65825;52.232;10.566;2022-12-18T01:26:21;31.15;;;12.25;;
76852;SDS011;65825;52.232;10.566;2022-12-18T01:28:48;29.42;;;11.05;;
76852;SDS011;65825;52.232;10.566;2022-12-18T01:33:42;22.98;;;11.07;;
76852;SDS011;65825;52.232;10.566;2022-12-18T01:36:08;27.50;;;11.80;;
76852;SDS011;65825;52.232;10.566;2022-12-18T01:38:39;24.50;;;10.75;;
76852;SDS011;65825;52.232;10.566;2022-12-18T01:41:05;21.05;;;9.90;;
76852;SDS011;65825;52.232;10.566;2022-12-18T01:43:47;22.27;;;11.63;;
76852;SDS011;65825;52.232;10.566;2022-12-18T01:46:14;25.58;;;9.80;;
76852;SDS011;65825;52.232;10.566;2022-12-18T01:48:40;24.27;;;10.68;;
76852;SDS011;65825;52.232;10.566;2022-12-18T01:51:06;22.42;;;10.20;;
76852;SDS011;65825;52.232;10.566;2022-12-18T01:53:34;25.30;;;10.35;;
76852;SDS011;65825;52.232;10.566;2022-12-18T01:56:00;21.73;;;10.52;;
76852;SDS011;65825;52.232;10.566;2022-12-18T02:01:27;22.55;;;10.35;;
76852;SDS011;65825;52.232;10.566;2022-12-18T02:03:54;25.55;;;10.52;;
76852;SDS011;65825;52.232;10.566;2022-12-18T02:09:05;26.13;;;10.65;;
76852;SDS011;65825;52.232;10.566;2022-12-18T02:14:25;20.83;;;10.60;;
76852;SDS011;65825;52.232;10.566;2022-12-18T02:17:01;21.05;;;10.63;;
76852;SDS011;65825;52.232;10.566;2022-12-18T02:19:47;25.27;;;11.27;;
76852;SDS011;65825;52.232;10.566;2022-12-18T02:22:26;22.65;;;10.93;;
76852;SDS011;65825;52.232;10.566;2022-12-18T02:25:35;24.80;;;10.55;;
76852;SDS011;65825;52.232;10.566;2022-12-18T02:28:18;21.23;;;10.13;;
76852;SDS011;65825;52.232;10.566;2022-12-18T02:30:45;16.73;;;8.73;;
76852;SDS011;65825;52.232;10.566;2022-12-18T02:33:14;27.02;;;11.50;;
76852;SDS011;65825;52.232;10.566;2022-12-18T02:35:40;20.45;;;9.88;;
76852;SDS011;65825;52.232;10.566;2022-12-18T02:38:08;30.55;;;12.38;;
76852;SDS011;65825;52.232;10.566;2022-12-18T02:40:34;23.15;;;10.75;;
76852;SDS011;65825;52.232;10.566;2022-12-18T02:43:02;21.95;;;8.77;;
76852;SDS011;65825;52.232;10.566;2022-12-18T02:45:32;22.95;;;10.48;;
76852;SDS011;65825;52.232;10.566;2022-12-18T02:47:58;26.33;;;11.27;;
76852;SDS011;65825;52.232;10.566;2022-12-18T02:50:28;25.98;;;10.85;;
76852;SDS011;65825;52.232;10.566;2022-12-18T02:55:52;22.13;;;10.70;;
76852;SDS011;65825;52.232;10.566;2022-12-18T03:01:32;22.25;;;9.63;;
76852;SDS011;65825;52.232;10.566;2022-12-18T03:04:18;23.52;;;10.45;;
76852;SDS011;65825;52.232;10.566;2022-12-18T03:06:49;28.85;;;9.95;;
76852;SDS011;65825;52.232;10.566;2022-12-18T03:09:19;19.30;;;9.32;;
76852;SDS011;65825;52.232;10.566;2022-12-18T03:11:52;22.67;;;9.68;;
76852;SDS011;65825;52.232;10.566;2022-12-18T03:14:40;21.58;;;9.70;;
76852;SDS011;65825;52.232;10.566;2022-12-18T03:17:09;22.55;;;9.70;;
76852;SDS011;65825;52.232;10.566;2022-12-18T03:19:38;20.73;;;9.77;;
76852;SDS011;65825;52.232;10.566;2022-12-18T03:22:06;21.58;;;10.13;;
76852;SDS011;65825;52.232;10.566;2022-12-18T03:24:33;24.08;;;9.93;;
76852;SDS011;65825;52.232;10.566;2022-12-18T03:27:05;21.20;;;10.20;;
76852;SDS011;65825;52.232;10.566;2022-12-18T03:29:35;19.60;;;9.75;;
76852;SDS011;65825;52.232;10.566;2022-12-18T03:32:06;23.55;;;10.10;;
76852;SDS011;65825;52.232;10.566;2022-12-18T03:34:37;20.83;;;8.95;;
76852;SDS011;65825;52.232;10.566;2022-12-18T03:37:05;21.27;;;10.90;;
76852;SDS011;65825;52.232;10.566;2022-12-18T03:39:31;23.15;;;10.23;;
76852;SDS011;65825;52.232;10.566;2022-12-18T03:42:00;23.15;;;10.00;;
76852;SDS011;65825;52.232;10.566;2022-12-18T03:44:35;26.63;;;10.88;;
76852;SDS011;65825;52.232;10.566;2022-12-18T03:47:05;20.95;;;10.35;;
76852;SDS011;65825;52.232;10.566;2022-12-18T03:49:35;22.35;;;9.55;;
76852;SDS011;65825;52.232;10.566;2022-12-18T03:52:27;24.48;;;10.05;;
76852;SDS011;65825;52.232;10.566;2022-12-18T03:54:57;23.10;;;8.93;;
76852;SDS011;65825;52.232;10.566;2022-12-18T03:57:25;18.88;;;9.25;;
76852;SDS011;65825;52.232;10.566;2022-12-18T03:59:57;20.67;;;9.90;;
76852;SDS011;65825;52.232;10.566;2022-12-18T04:02:28;16.50;;;9.18;;
76852;SDS011;65825;52.232;10.566;2022-12-18T04:04:56;25.58;;;10.18;;
76852;SDS011;65825;52.232;10.566;2022-12-18T04:07:24;23.75;;;10.52;;
76852;SDS011;65825;52.232;10.566;2022-12-18T04:09:50;24.75;;;9.57;;
76852;SDS011;65825;52.232;10.566;2022-12-18T04:12:19;25.50;;;9.73;;
76852;SDS011;65825;52.232;10.566;2022-12-18T04:14:44;23.93;;;9.63;;
76852;SDS011;65825;52.232;10.566;2022-12-18T04:17:09;26.63;;;10.25;;
76852;SDS011;65825;52.232;10.566;2022-12-18T04:19:35;19.58;;;9.25;;
76852;SDS011;65825;52.232;10.566;2022-12-18T04:22:00;18.57;;;9.30;;
76852;SDS011;65825;52.232;10.566;2022-12-18T04:24:25;18.63;;;8.90;;
76852;SDS011;65825;52.232;10.566;2022-12-18T04:26:51;26.48;;;11.77;;
76852;SDS011;65825;52.232;10.566;2022-12-18T04:29:16;21.80;;;8.95;;
76852;SDS011;65825;52.232;10.566;2022-12-18T04:31:41;21.30;;;9.10;;
76852;SDS011;65825;52.232;10.566;2022-12-18T04:34:07;22.57;;;9.90;;
76852;SDS011;65825;52.232;10.566;2022-12-18T04:36:32;24.60;;;9.73;;
76852;SDS011;65825;52.232;10.566;2022-12-18T04:38:57;21.45;;;9.30;;
76852;SDS011;65825;52.232;10.566;2022-12-18T04:41:23;20.87;;;9.17;;
76852;SDS011;65825;52.232;10.566;2022-12-18T04:43:48;24.67;;;10.63;;
76852;SDS011;65825;52.232;10.566;2022-12-18T04:46:13;31.25;;;10.73;;
76852;SDS011;65825;52.232;10.566;2022-12-18T04:48:39;22.30;;;9.85;;
76852;SDS011;65825;52.232;10.566;2022-12-18T04:51:04;31.90;;;10.53;;
76852;SDS011;65825;52.232;10.566;2022-12-18T04:53:30;24.63;;;11.52;;
76852;SDS011;65825;52.232;10.566;2022-12-18T04:56:06;28.30;;;10.35;;
76852;SDS011;65825;52.232;10.566;2022-12-18T04:58:33;28.23;;;10.23;;
76852;SDS011;65825;52.232;10.566;2022-12-18T05:00:59;21.42;;;9.90;;
76852;SDS011;65825;52.232;10.566;2022-12-18T05:03:25;20.20;;;9.68;;
76852;SDS011;65825;52.232;10.566;2022-12-18T05:05:51;23.80;;;10.10;;
76852;SDS011;65825;52.232;10.566;2022-12-18T05:08:17;23.30;;;8.52;;
76852;SDS011;65825;52.232;10.566;2022-12-18T05:10:44;23.80;;;10.13;;
76852;SDS011;65825;52.232;10.566;2022-12-18T05:13:10;25.67;;;10.90;;
76852;SDS011;65825;52.232;10.566;2022-12-18T05:15:35;31.05;;;11.20;;
76852;SDS011;65825;52.232;10.566;2022-12-18T05:18:01;22.83;;;9.25;;
76852;SDS011;65825;52.232;10.566;2022-12-18T05:20:27;24.10;;;9.93;;
76852;SDS011;65825;52.232;10.566;2022-12-18T05:22:53;20.85;;;8.05;;
76852;SDS011;65825;52.232;10.566;2022-12-18T05:25:19;28.83;;;10.60;;
76852;SDS011;65825;52.232;10.566;2022-12-18T05:27:45;26.10;;;11.27;;
76852;SDS011;65825;52.232;10.566;2022-12-18T05:30:11;29.08;;;10.38;;
76852;SDS011;65825;52.232;10.566;2022-12-18T05:32:37;24.02;;;11.25;;
76852;SDS011;65825;52.232;10.566;2022-12-18T05:35:03;30.67;;;11.48;;
76852;SDS011;65825;52.232;10.566;2022-12-18T05:37:30;20.77;;;9.85;;
76852;SDS011;65825;52.232;10.566;2022-12-18T05:39:57;27.92;;;11.77;;
76852;SDS011;65825;52.232;10.566;2022-12-18T05:42:22;19.93;;;9.27;;
76852;SDS011;65825;52.232;10.566;2022-12-18T05:44:48;19.98;;;8.60;;
76852;SDS011;65825;52.232;10.566;2022-12-18T05:47:13;23.45;;;9.63;;
76852;SDS011;65825;52.232;10.566;2022-12-18T05:49:39;22.73;;;10.38;;
76852;SDS011;65825;52.232;10.566;2022-12-18T05:52:04;21.63;;;9.53;;
76852;SDS011;65825;52.232;10.566;2022-12-18T05:54:29;26.80;;;9.88;;
76852;SDS011;65825;52.232;10.566;2022-12-18T05:56:55;28.52;;;10.70;;
76852;SDS011;65825;52.232;10.566;2022-12-18T05:59:21;28.02;;;10.77;;
76852;SDS011;65825;52.232;10.566;2022-12-18T06:01:46;23.27;;;10.37;;
76852;SDS011;65825;52.232;10.566;2022-12-18T06:04:11;21.03;;;8.93;;
76852;SDS011;65825;52.232;10.566;2022-12-18T06:06:37;25.52;;;8.43;;
76852;SDS011;65825;52.232;10.566;2022-12-18T06:09:03;21.38;;;8.88;;
76852;SDS011;65825;52.232;10.566;2022-12-18T06:11:33;32.60;;;10.85;;
76852;SDS011;65825;52.232;10.566;2022-12-18T06:13:59;22.63;;;9.73;;
76852;SDS011;65825;52.232;10.566;2022-12-18T06:16:26;25.40;;;10.07;;
76852;SDS011;65825;52.232;10.566;2022-12-18T06:18:52;25.95;;;9.75;;
76852;SDS011;65825;52.232;10.566;2022-12-18T06:21:17;26.53;;;10.83;;
76852;SDS011;65825;52.232;10.566;2022-12-18T06:23:42;25.27;;;9.63;;
76852;SDS011;65825;52.232;10.566;2022-12-18T06:26:13;26.17;;;11.50;;
76852;SDS011;65825;52.232;10.566;2022-12-18T06:28:39;28.80;;;11.82;;
76852;SDS011;65825;52.232;10.566;2022-12-18T06:31:04;26.40;;;10.90;;
76852;SDS011;65825;52.232;10.566;2022-12-18T06:33:30;31.30;;;10.73;;
76852;SDS011;65825;52.232;10.566;2022-12-18T06:36:00;24.05;;;10.43;;
76852;SDS011;65825;52.232;10.566;2022-12-18T06:38:27;27.85;;;10.35;;
76852;SDS011;65825;52.232;10.566;2022-12-18T06:40:52;25.23;;;10.60;;
76852;SDS011;65825;52.232;10.566;2022-12-18T06:43:17;24.20;;;11.07;;
76852;SDS011;65825;52.232;10.566;2022-12-18T06:45:43;27.07;;;10.50;;
76852;SDS011;65825;52.232;10.566;2022-12-18T06:48:08;24.70;;;10.63;;
76852;SDS011;65825;52.232;10.566;2022-12-18T06:50:33;23.10;;;9.67;;
76852;SDS011;65825;52.232;10.566;2022-12-18T06:52:59;23.38;;;10.60;;
76852;SDS011;65825;52.232;10.566;2022-12-18T06:55:24;23.75;;;10.23;;
76852;SDS011;65825;52.232;10.566;2022-12-18T06:57:49;29.90;;;10.02;;
76852;SDS011;65825;52.232;10.566;2022-12-18T07:00:15;29.35;;;10.63;;
76852;SDS011;65825;52.232;10.566;2022-12-18T07:02:40;28.50;;;9.95;;
76852;SDS011;65825;52.232;10.566;2022-12-18T07:05:06;23.73;;;9.32;;
76852;SDS011;65825;52.232;10.566;2022-12-18T07:07:32;20.67;;;9.32;;
76852;SDS011;65825;52.232;10.566;2022-12-18T07:09:58;24.98;;;10.45;;
76852;SDS011;65825;52.232;10.566;2022-12-18T07:12:24;22.67;;;9.57;;
76852;SDS011;65825;52.232;10.566;2022-12-18T07:14:49;29.73;;;11.10;;
76852;SDS011;65825;52.232;10.566;2022-12-18T07:17:14;24.20;;;9.55;;
76852;SDS011;65825;52.232;10.566;2022-12-18T07:19:40;19.87;;;8.10;;
76852;SDS011;65825;52.232;10.566;2022-12-18T07:22:05;19.42;;;9.57;;
76852;SDS011;65825;52.232;10.566;2022-12-18T07:24:32;22.30;;;9.00;;
76852;SDS011;65825;52.232;10.566;2022-12-18T07:26:58;19.17;;;7.75;;
76852;SDS011;65825;52.232;10.566;2022-12-18T07:29:23;22.87;;;9.77;;
76852;SDS011;65825;52.232;10.566;2022-12-18T07:31:48;23.70;;;9.43;;
76852;SDS011;65825;52.232;10.566;2022-12-18T07:34:14;31.13;;;12.30;;
76852;SDS011;65825;52.232;10.566;2022-12-18T07:36:40;25.33;;;9.93;;
76852;SDS011;65825;52.232;10.566;2022-12-18T07:39:06;21.58;;;9.85;;
76852;SDS011;65825;52.232;10.566;2022-12-18T07:41:31;27.50;;;11.13;;
76852;SDS011;65825;52.232;10.566;2022-12-18T07:43:56;25.43;;;9.73;;
76852;SDS011;65825;52.232;10.566;2022-12-18T07:46:22;21.07;;;9.00;;
76852;SDS011;65825;52.232;10.566;2022-12-18T07:48:47;27.73;;;11.13;;
76852;SDS011;65825;52.232;10.566;2022-12-18T07:51:13;26.13;;;11.40;;
76852;SDS011;65825;52.232;10.566;2022-12-18T07:53:38;24.17;;;11.07;;
76852;SDS011;65825;52.232;10.566;2022-12-18T07:56:08;22.67;;;9.20;;
76852;SDS011;65825;52.232;10.566;2022-12-18T07:58:36;22.45;;;9.18;;
76852;SDS011;65825;52.232;10.566;2022-12-18T08:01:09;24.13;;;10.98;;
76852;SDS011;65825;52.232;10.566;2022-12-18T08:03:36;25.48;;;10.38;;
76852;SDS011;65825;52.232;10.566;2022-12-18T08:06:03;23.65;;;10.52;;
76852;SDS011;65825;52.232;10.566;2022-12-18T08:08:30;26.90;;;10.77;;
76852;SDS011;65825;52.232;10.566;2022-12-18T08:10:56;23.05;;;11.13;;
76852;SDS011;65825;52.232;10.566;2022-12-18T08:13:21;23.73;;;10.73;;
76852;SDS011;65825;52.232;10.566;2022-12-18T08:15:55;34.78;;;10.02;;
76852;SDS011;65825;52.232;10.566;2022-12-18T08:18:24;24.52;;;10.05;;
76852;SDS011;65825;52.232;10.566;2022-12-18T08:20:50;30.40;;;10.65;;
76852;SDS011;65825;52.232;10.566;2022-12-18T08:23:16;31.25;;;10.75;;
76852;SDS011;65825;52.232;10.566;2022-12-18T08:25:41;23.75;;;9.00;;
76852;SDS011;65825;52.232;10.566;2022-12-18T08:28:06;26.40;;;10.20;;
76852;SDS011;65825;52.232;10.566;2022-12-18T08:30:32;25.92;;;10.05;;
76852;SDS011;65825;52.232;10.566;2022-12-18T08:32:57;25.85;;;10.02;;
76852;SDS011;65825;52.232;10.566;2022-12-18T08:35:23;27.40;;;10.18;;
76852;SDS011;65825;52.232;10.566;2022-12-18T08:37:48;23.33;;;10.55;;
76852;SDS011;65825;52.232;10.566;2022-12-18T08:40:14;26.10;;;10.00;;
76852;SDS011;65825;52.232;10.566;2022-12-18T08:42:39;22.67;;;8.80;;
76852;SDS011;65825;52.232;10.566;2022-12-18T08:45:23;25.23;;;8.73;;
76852;SDS011;65825;52.232;10.566;2022-12-18T08:47:49;25.95;;;10.02;;
76852;SDS011;65825;52.232;10.566;2022-12-18T08:50:15;18.90;;;8.50;;
76852;SDS011;65825;52.232;10.566;2022-12-18T08:52:40;16.25;;;6.35;;
76852;SDS011;65825;52.232;10.566;2022-12-18T08:55:06;27.95;;;10.27;;
76852;SDS011;65825;52.232;10.566;2022-12-18T08:57:32;22.73;;;8.73;;
76852;SDS011;65825;52.232;10.566;2022-12-18T08:59:57;25.30;;;9.10;;
76852;SDS011;65825;52.232;10.566;2022-12-18T09:02:22;24.73;;;9.23;;
76852;SDS011;65825;52.232;10.566;2022-12-18T09:04:47;24.77;;;8.77;;
76852;SDS011;65825;52.232;10.566;2022-12-18T09:07:13;23.20;;;9.32;;
76852;SDS011;65825;52.232;10.566;2022-12-18T09:09:38;23.87;;;8.77;;
76852;SDS011;65825;52.232;10.566;2022-12-18T09:12:03;21.50;;;9.37;;
76852;SDS011;65825;52.232;10.566;2022-12-18T09:14:29;24.60;;;9.48;;
76852;SDS011;65825;52.232;10.566;2022-12-18T09:16:54;24.23;;;9.63;;
76852;SDS011;65825;52.232;10.566;2022-12-18T09:19:19;23.90;;;9.15;;
76852;SDS011;65825;52.232;10.566;2022-12-18T09:21:45;21.57;;;8.07;;
76852;SDS011;65825;52.232;10.566;2022-12-18T09:24:11;24.33;;;10.13;;
76852;SDS011;65825;52.232;10.566;2022-12-18T09:26:38;21.20;;;9.00;;
76852;SDS011;65825;52.232;10.566;2022-12-18T09:29:03;26.03;;;10.37;;
76852;SDS011;65825;52.232;10.566;2022-12-18T09:31:29;23.15;;;9.45;;
76852;SDS011;65825;52.232;10.566;2022-12-18T09:33:55;24.27;;;9.43;;
76852;SDS011;65825;52.232;10.566;2022-12-18T09:36:21;23.13;;;10.20;;
76852;SDS011;65825;52.232;10.566;2022-12-18T09:38:46;19.88;;;9.35;;
76852;SDS011;65825;52.232;10.566;2022-12-18T09:41:17;24.70;;;9.65;;
76852;SDS011;65825;52.232;10.566;2022-12-18T09:43:56;25.70;;;9.93;;
76852;SDS011;65825;52.232;10.566;2022-12-18T09:46:32;22.75;;;9.77;;
76852;SDS011;65825;52.232;10.566;2022-12-18T09:49:02;21.27;;;10.18;;
76852;SDS011;65825;52.232;10.566;2022-12-18T09:51:36;21.80;;;9.63;;
76852;SDS011;65825;52.232;10.566;2022-12-18T09:54:06;22.38;;;9.35;;
76852;SDS011;65825;52.232;10.566;2022-12-18T09:56:38;22.20;;;8.60;;
76852;SDS011;65825;52.232;10.566;2022-12-18T09:59:09;20.13;;;8.50;;
76852;SDS011;65825;52.232;10.566;2022-12-18T10:01:44;20.05;;;9.35;;
76852;SDS011;65825;52.232;10.566;2022-12-18T10:04:09;14.80;;;7.85;;
76852;SDS011;65825;52.232;10.566;2022-12-18T10:06:36;15.23;;;8.55;;
76852;SDS011;65825;52.232;10.566;2022-12-18T10:15:01;19.20;;;8.82;;
76852;SDS011;65825;52.232;10.566;2022-12-18T10:17:47;15.63;;;7.82;;
76852;SDS011;65825;52.232;10.566;2022-12-18T10:20:30;18.27;;;8.75;;
76852;SDS011;65825;52.232;10.566;2022-12-18T10:23:19;19.23;;;8.80;;
76852;SDS011;65825;52.232;10.566;2022-12-18T10:28:16;19.10;;;9.93;;
76852;SDS011;65825;52.232;10.566;2022-12-18T10:30:43;20.13;;;10.02;;
76852;SDS011;65825;52.232;10.566;2022-12-18T10:33:13;21.45;;;10.82;;
76852;SDS011;65825;52.232;10.566;2022-12-18T10:35:55;21.15;;;10.20;;
76852;SDS011;65825;52.232;10.566;2022-12-18T10:38:26;18.45;;;9.27;;
76852;SDS011;65825;52.232;10.566;2022-12-18T10:48:33;18.33;;;10.25;;
76852;SDS011;65825;52.232;10.566;2022-12-18T10:51:21;17.67;;;9.55;;
76852;SDS011;65825;52.232;10.566;2022-12-18T10:53:55;20.17;;;10.00;;
76852;SDS011;65825;52.232;10.566;2022-12-18T10:56:24;21.85;;;10.15;;
76852;SDS011;65825;52.232;10.566;2022-12-18T10:58:59;21.30;;;10.18;;
76852;SDS011;65825;52.232;10.566;2022-12-18T11:01:33;20.25;;;10.05;;
76852;SDS011;65825;52.232;10.566;2022-12-18T11:04:16;20.65;;;10.50;;
76852;SDS011;65825;52.232;10.566;2022-12-18T11:09:38;19.17;;;8.85;;
76852;SDS011;65825;52.232;10.566;2022-12-18T11:17:19;19.95;;;9.05;;
76852;SDS011;65825;52.232;10.566;2022-12-18T11:19:55;17.80;;;9.23;;
76852;SDS011;65825;52.232;10.566;2022-12-18T11:22:26;22.02;;;9.32;;
76852;SDS011;65825;52.232;10.566;2022-12-18T11:25:00;17.60;;;8.32;;
76852;SDS011;65825;52.232;10.566;2022-12-18T11:27:28;19.15;;;8.60;;
76852;SDS011;65825;52.232;10.566;2022-12-18T11:30:07;14.35;;;7.97;;
76852;SDS011;65825;52.232;10.566;2022-12-18T11:32:38;18.45;;;8.38;;
76852;SDS011;65825;52.232;10.566;2022-12-18T11:35:17;16.73;;;8.30;;
76852;SDS011;65825;52.232;10.566;2022-12-18T11:37:51;18.25;;;8.88;;
76852;SDS011;65825;52.232;10.566;2022-12-18T11:40:30;16.77;;;8.02;;
76852;SDS011;65825;52.232;10.566;2022-12-18T11:43:08;16.00;;;8.13;;
76852;SDS011;65825;52.232;10.566;2022-12-18T11:45:43;20.83;;;9.32;;
76852;SDS011;65825;52.232;10.566;2022-12-18T11:48:25;18.40;;;8.77;;
76852;SDS011;65825;52.232;10.566;2022-12-18T11:50:57;19.88;;;9.18;;
76852;SDS011;65825;52.232;10.566;2022-12-18T11:53:25;19.45;;;8.80;;
76852;SDS011;65825;52.232;10.566;2022-12-18T12:04:06;17.52;;;10.05;;
76852;SDS011;65825;52.232;10.566;2022-12-18T12:09:31;20.77;;;10.93;;
76852;SDS011;65825;52.232;10.566;2022-12-18T12:12:27;16.95;;;9.82;;
76852;SDS011;65825;52.232;10.566;2022-12-18T12:15:22;18.83;;;9.35;;
76852;SDS011;65825;52.232;10.566;2022-12-18T12:18:03;18.90;;;9.77;;
76852;SDS011;65825;52.232;10.566;2022-12-18T12:23:19;15.98;;;8.98;;
76852;SDS011;65825;52.232;10.566;2022-12-18T12:26:12;16.02;;;9.35;;
76852;SDS011;65825;52.232;10.566;2022-12-18T12:31:46;13.13;;;7.95;;
76852;SDS011;65825;52.232;10.566;2022-12-18T12:34:23;15.85;;;8.70;;
76852;SDS011;65825;52.232;10.566;2022-12-18T12:37:01;15.25;;;9.13;;
76852;SDS011;65825;52.232;10.566;2022-12-18T12:39:40;13.85;;;8.32;;
76852;SDS011;65825;52.232;10.566;2022-12-18T12:42:21;14.80;;;8.45;;
76852;SDS011;65825;52.232;10.566;2022-12-18T12:45:16;14.75;;;7.97;;
76852;SDS011;65825;52.232;10.566;2022-12-18T12:47:47;16.80;;;7.60;;
76852;SDS011;65825;52.232;10.566;2022-12-18T12:50:16;13.43;;;6.90;;
76852;SDS011;65825;52.232;10.566;2022-12-18T12:52:45;12.88;;;7.15;;
76852;SDS011;65825;52.232;10.566;2022-12-18T12:55:14;12.65;;;7.03;;
76852;SDS011;65825;52.232;10.566;2022-12-18T13:06:33;14.48;;;7.25;;
76852;SDS011;65825;52.232;10.566;2022-12-18T13:09:01;11.40;;;6.05;;
76852;SDS011;65825;52.232;10.566;2022-12-18T13:11:29;9.73;;;5.60;;
76852;SDS011;65825;52.232;10.566;2022-12-18T13:14:22;13.13;;;6.22;;
76852;SDS011;65825;52.232;10.566;2022-12-18T13:17:13;12.35;;;5.88;;
76852;SDS011;65825;52.232;10.566;2022-12-18T13:20:04;11.25;;;5.90;;
76852;SDS011;65825;52.232;10.566;2022-12-18T13:25:35;13.77;;;5.55;;
76852;SDS011;65825;52.232;10.566;2022-12-18T13:28:06;13.02;;;6.30;;
76852;SDS011;65825;52.232;10.566;2022-12-18T13:33:30;10.93;;;5.97;;
76852;SDS011;65825;52.232;10.566;2022-12-18T13:38:46;12.65;;;6.60;;
76852;SDS011;65825;52.232;10.566;2022-12-18T13:46:46;15.43;;;7.13;;
76852;SDS011;65825;52.232;10.566;2022-12-18T13:51:38;12.98;;;7.57;;
76852;SDS011;65825;52.232;10.566;2022-12-18T13:54:21;15.05;;;7.32;;
76852;SDS011;65825;52.232;10.566;2022-12-18T13:56:51;16.58;;;8.02;;
76852;SDS011;65825;52.232;10.566;2022-12-18T14:01:45;18.53;;;8.93;;
76852;SDS011;65825;52.232;10.566;2022-12-18T14:06:45;17.00;;;9.05;;
76852;SDS011;65825;52.232;10.566;2022-12-18T14:09:15;16.55;;;8.57;;
76852;SDS011;65825;52.232;10.566;2022-12-18T14:11:48;17.75;;;7.95;;
76852;SDS011;65825;52.232;10.566;2022-12-18T14:14:15;15.70;;;8.68;;
76852;SDS011;65825;52.232;10.566;2022-12-18T14:19:12;15.40;;;7.72;;
76852;SDS011;65825;52.232;10.566;2022-12-18T14:21:40;16.65;;;7.97;;
76852;SDS011;65825;52.232;10.566;2022-12-18T14:24:15;15.60;;;7.70;;
76852;SDS011;65825;52.232;10.566;2022-12-18T14:26:46;18.20;;;8.18;;
76852;SDS011;65825;52.232;10.566;2022-12-18T14:34:30;16.10;;;7.63;;
76852;SDS011;65825;52.232;10.566;2022-12-18T14:36:56;18.50;;;8.75;;
76852;SDS011;65825;52.232;10.566;2022-12-18T14:39:21;14.50;;;7.93;;
76852;SDS011;65825;52.232;10.566;2022-12-18T14:41:48;17.67;;;8.68;;
76852;SDS011;65825;52.232;10.566;2022-12-18T14:44:13;17.27;;;7.97;;
76852;SDS011;65825;52.232;10.566;2022-12-18T14:46:39;16.23;;;7.40;;
76852;SDS011;65825;52.232;10.566;2022-12-18T14:52:02;16.92;;;7.78;;
76852;SDS011;65825;52.232;10.566;2022-12-18T14:54:30;19.98;;;9.18;;
76852;SDS011;65825;52.232;10.566;2022-12-18T14:59:44;22.00;;;8.40;;
76852;SDS011;65825;52.232;10.566;2022-12-18T15:04:41;20.48;;;8.80;;
76852;SDS011;65825;52.232;10.566;2022-12-18T15:09:42;15.27;;;8.13;;
76852;SDS011;65825;52.232;10.566;2022-12-18T15:12:26;15.63;;;8.05;;
76852;SDS011;65825;52.232;10.566;2022-12-18T15:14:58;14.73;;;8.13;;
76852;SDS011;65825;52.232;10.566;2022-12-18T15:17:23;15.77;;;6.65;;
76852;SDS011;65825;52.232;10.566;2022-12-18T15:19:50;16.75;;;7.50;;
76852;SDS011;65825;52.232;10.566;2022-12-18T15:24:45;15.82;;;6.70;;
76852;SDS011;65825;52.232;10.566;2022-12-18T15:30:00;15.40;;;6.65;;
76852;SDS011;65825;52.232;10.566;2022-12-18T15:32:32;12.30;;;6.30;;
76852;SDS011;65825;52.232;10.566;2022-12-18T15:35:02;14.80;;;6.60;;
76852;SDS011;65825;52.232;10.566;2022-12-18T15:37:34;13.18;;;6.97;;
76852;SDS011;65825;52.232;10.566;2022-12-18T15:39:59;13.73;;;6.90;;
76852;SDS011;65825;52.232;10.566;2022-12-18T15:42:24;13.57;;;7.22;;
76852;SDS011;65825;52.232;10.566;2022-12-18T15:45:11;16.38;;;7.20;;
76852;SDS011;65825;52.232;10.566;2022-12-18T15:47:37;15.75;;;7.53;;
76852;SDS011;65825;52.232;10.566;2022-12-18T15:50:02;17.47;;;7.30;;
76852;SDS011;65825;52.232;10.566;2022-12-18T15:52:28;15.77;;;6.72;;
76852;SDS011;65825;52.232;10.566;2022-12-18T15:54:53;17.42;;;8.82;;
76852;SDS011;65825;52.232;10.566;2022-12-18T15:57:37;15.57;;;6.72;;
76852;SDS011;65825;52.232;10.566;2022-12-18T16:00:02;21.43;;;8.37;;
76852;SDS011;65825;52.232;10.566;2022-12-18T16:02:28;13.25;;;6.10;;
76852;SDS011;65825;52.232;10.566;2022-12-18T16:04:53;15.48;;;7.07;;
76852;SDS011;65825;52.232;10.566;2022-12-18T16:07:19;15.75;;;7.80;;
76852;SDS011;65825;52.232;10.566;2022-12-18T16:09:47;14.23;;;7.18;;
76852;SDS011;65825;52.232;10.566;2022-12-18T16:12:17;16.30;;;7.55;;
76852;SDS011;65825;52.232;10.566;2022-12-18T16:14:44;15.00;;;7.97;;
76852;SDS011;65825;52.232;10.566;2022-12-18T16:17:11;17.45;;;7.55;;
76852;SDS011;65825;52.232;10.566;2022-12-18T16:19:37;15.73;;;8.32;;